createdAt,value
2023-04-06T00:04:13.401Z,40.81
2023-04-06T00:08:29.895Z,40.96
2023-04-06T00:12:46.038Z,41.22
2023-04-06T00:17:02.733Z,41.36
2023-04-06T00:21:19.022Z,41.73
2023-04-06T00:25:35.260Z,41.54
2023-04-06T00:29:51.555Z,42.12
2023-04-06T00:34:08.058Z,41.06
2023-04-06T00:38:24.473Z,41.74
2023-04-06T00:42:40.817Z,43.17
2023-04-06T00:46:57.100Z,43.16
2023-04-06T00:51:13.404Z,42.46
2023-04-06T00:55:30.228Z,41.86
2023-04-06T00:59:46.965Z,41.44
2023-04-06T01:04:04.035Z,41.53
2023-04-06T01:08:20.392Z,41.32
2023-04-06T01:12:38.555Z,41.58
2023-04-06T01:16:54.939Z,41.62
2023-04-06T01:21:16.628Z,42.52
2023-04-06T01:25:32.807Z,42.49
2023-04-06T01:29:48.983Z,41.96
2023-04-06T01:34:05.433Z,41.84
2023-04-06T01:38:22.008Z,41.85
2023-04-06T01:42:38.307Z,41.98
2023-04-06T01:46:54.853Z,41.94
2023-04-06T01:51:11.354Z,42.31
2023-04-06T01:55:27.643Z,42.63
2023-04-06T01:59:43.953Z,42.87
2023-04-06T02:04:00.192Z,42.95
2023-04-06T02:08:16.606Z,43.35
2023-04-06T02:12:32.782Z,44.03
2023-04-06T02:16:49.052Z,44.22
2023-04-06T02:21:05.820Z,44.07
2023-04-06T02:25:22.470Z,44.23
2023-04-06T02:29:38.596Z,44.89
2023-04-06T02:33:54.843Z,44.88
2023-04-06T02:38:11.293Z,45.50
2023-04-06T02:42:27.486Z,45.33
2023-04-06T02:46:43.720Z,45.92
2023-04-06T02:50:59.960Z,46.22
2023-04-06T02:55:16.264Z,45.87
2023-04-06T02:59:32.644Z,45.60
2023-04-06T03:03:49.154Z,45.88
2023-04-06T03:08:05.630Z,45.91
2023-04-06T03:12:22.254Z,46.59
2023-04-06T03:16:38.434Z,45.74
2023-04-06T03:20:55.226Z,45.41
2023-04-06T03:25:11.665Z,45.79
2023-04-06T03:29:28.358Z,46.05
2023-04-06T03:33:44.578Z,46.72
2023-04-06T03:38:00.901Z,47.65
2023-04-06T03:42:17.102Z,46.79
2023-04-06T03:46:33.395Z,46.87
2023-04-06T03:50:49.570Z,46.33
2023-04-06T03:55:06.445Z,46.12
2023-04-06T03:59:22.703Z,45.54
2023-04-06T04:03:39.161Z,45.27
2023-04-06T04:07:55.455Z,45.59
2023-04-06T04:12:11.687Z,45.21
2023-04-06T04:16:27.913Z,44.48
2023-04-06T04:20:44.148Z,43.97
2023-04-06T04:25:00.552Z,44.12
2023-04-06T04:29:17.079Z,44.14
2023-04-06T04:33:33.356Z,43.93
2023-04-06T04:37:49.698Z,44.41
2023-04-06T04:42:05.937Z,44.57
2023-04-06T04:46:22.289Z,44.77
2023-04-06T04:50:38.754Z,44.77
2023-04-06T04:54:55.000Z,45.05
2023-04-06T04:59:11.568Z,45.15
2023-04-06T05:03:28.605Z,45.83
2023-04-06T05:07:44.947Z,45.78
2023-04-06T05:12:01.773Z,45.74
2023-04-06T05:16:18.329Z,46.32
2023-04-06T05:20:35.669Z,46.59
2023-04-06T05:24:51.778Z,45.76
2023-04-06T05:29:08.247Z,45.63
2023-04-06T05:33:25.456Z,45.13
2023-04-06T05:37:41.816Z,44.57
2023-04-06T05:41:58.017Z,45.85
2023-04-06T05:46:14.332Z,45.19
2023-04-06T05:50:30.711Z,45.10
2023-04-06T05:54:47.009Z,45.10
2023-04-06T05:59:03.224Z,44.73
2023-04-06T06:03:20.165Z,44.51
2023-04-06T06:07:36.453Z,44.54
2023-04-06T06:11:52.821Z,44.65
2023-04-06T06:16:09.310Z,44.32
2023-04-06T06:20:26.200Z,43.52
2023-04-06T06:24:42.422Z,43.51
2023-04-06T06:28:58.625Z,43.85
2023-04-06T06:33:14.839Z,43.96
2023-04-06T06:37:31.355Z,42.88
2023-04-06T06:41:47.793Z,42.90
2023-04-06T06:46:04.599Z,42.15
2023-04-06T06:50:21.217Z,43.55
2023-04-06T06:54:37.526Z,48.61
2023-04-06T06:58:53.816Z,41.70
2023-04-06T07:03:10.046Z,43.34
2023-04-06T07:07:28.345Z,40.68
2023-04-06T07:11:44.489Z,40.10
2023-04-06T07:16:00.834Z,38.35
2023-04-06T07:20:17.211Z,38.16
2023-04-06T07:24:33.713Z,37.47
2023-04-06T07:28:51.939Z,39.05
2023-04-06T07:33:08.239Z,39.43
2023-04-06T07:37:24.626Z,39.48
2023-04-06T07:41:40.983Z,37.61
2023-04-06T07:45:58.458Z,37.71
2023-04-06T07:50:15.021Z,36.64
2023-04-06T07:54:31.220Z,37.30
2023-04-06T07:58:54.186Z,36.60
2023-04-06T08:03:10.963Z,37.67
2023-04-06T08:07:27.276Z,35.80
2023-04-06T08:11:43.761Z,35.38
2023-04-06T08:16:00.312Z,35.49
2023-04-06T08:20:16.578Z,33.93
2023-04-06T08:24:33.607Z,33.85
2023-04-06T08:28:49.815Z,34.38
2023-04-06T08:33:06.293Z,34.83
2023-04-06T08:37:22.948Z,33.17
2023-04-06T08:41:39.189Z,31.03
2023-04-06T08:45:57.603Z,30.02
2023-04-06T08:50:13.971Z,29.29
2023-04-06T08:54:30.136Z,27.96
2023-04-06T08:58:48.431Z,28.52
2023-04-06T09:03:05.039Z,27.89
2023-04-06T09:07:22.107Z,28.89
2023-04-06T09:11:52.157Z,27.27
2023-04-06T09:16:10.628Z,28.20
2023-04-06T09:20:28.868Z,28.25
2023-04-06T09:24:51.100Z,27.48
2023-04-06T09:29:09.544Z,27.14
2023-04-06T09:33:27.819Z,27.47
2023-04-06T09:37:53.036Z,27.34
2023-04-06T09:42:11.345Z,26.18
2023-04-06T09:46:27.728Z,26.23
2023-04-06T09:50:46.141Z,26.29
2023-04-06T09:55:07.877Z,26.02
2023-04-06T09:59:42.231Z,26.65
2023-04-06T10:04:36.399Z,25.83
2023-04-06T10:08:55.264Z,26.33
2023-04-06T10:13:12.837Z,26.40
2023-04-06T10:17:29.128Z,25.55
2023-04-06T10:21:51.676Z,25.24
2023-04-06T10:26:17.621Z,25.75
2023-04-06T10:30:37.273Z,25.02
2023-04-06T10:34:55.656Z,23.80
2023-04-06T10:39:11.883Z,24.89
2023-04-06T10:43:30.155Z,23.88
2023-04-06T10:47:46.447Z,23.71
2023-04-06T10:52:02.825Z,24.24
2023-04-06T10:56:22.594Z,24.82
2023-04-06T11:00:51.592Z,23.33
2023-04-06T11:05:08.632Z,23.72
2023-04-06T11:09:31.043Z,22.73
2023-04-06T11:13:48.627Z,23.24
2023-04-06T11:18:09.933Z,22.65
2023-04-06T11:22:27.309Z,23.93
2023-04-06T11:26:45.328Z,24.72
2023-04-06T11:31:02.032Z,23.34
2023-04-06T11:35:23.286Z,23.47
2023-04-06T11:39:43.967Z,24.07
2023-04-06T11:44:02.282Z,22.46
2023-04-06T11:48:23.810Z,23.86
2023-04-06T11:52:42.864Z,23.40
2023-04-06T11:56:59.130Z,23.23
2023-04-06T12:01:19.558Z,23.00
2023-04-06T12:05:39.872Z,23.29
2023-04-06T12:09:56.053Z,24.03
2023-04-06T12:14:12.978Z,24.40
2023-04-06T12:18:29.326Z,24.72
2023-04-06T12:22:45.629Z,23.77
2023-04-06T12:27:10.193Z,24.55
2023-04-06T12:31:27.269Z,24.37
2023-04-06T12:35:45.542Z,24.15
2023-04-06T12:40:02.354Z,23.26
2023-04-06T12:44:18.651Z,24.38
2023-04-06T12:48:35.053Z,24.49
2023-04-06T12:52:51.289Z,23.22
2023-04-06T12:57:09.570Z,23.78
2023-04-06T13:01:26.978Z,25.13
2023-04-06T13:05:49.146Z,24.02
2023-04-06T13:10:05.960Z,25.14
2023-04-06T13:14:22.168Z,24.47
2023-04-06T13:18:39.964Z,24.46
2023-04-06T13:22:56.664Z,25.02
2023-04-06T13:27:13.018Z,25.55
2023-04-06T13:31:29.704Z,25.92
2023-04-06T13:35:48.909Z,25.37
2023-04-06T13:40:06.187Z,25.32
2023-04-06T13:44:22.399Z,26.88
2023-04-06T13:48:38.588Z,26.62
2023-04-06T13:52:54.960Z,26.54
2023-04-06T13:57:11.252Z,27.63
2023-04-06T14:01:29.968Z,27.33
2023-04-06T14:05:49.042Z,28.18
2023-04-06T14:10:05.870Z,29.39
2023-04-06T14:14:26.568Z,29.10
2023-04-06T14:18:43.832Z,29.39
2023-04-06T14:23:04.679Z,28.36
2023-04-06T14:27:21.178Z,29.34
2023-04-06T14:31:38.279Z,30.50
2023-04-06T14:35:54.668Z,29.46
2023-04-06T14:40:11.186Z,29.58
2023-04-06T14:44:31.460Z,33.61
2023-04-06T14:48:50.230Z,29.36
2023-04-06T14:53:06.810Z,29.30
2023-04-06T14:57:25.011Z,29.93
2023-04-06T15:01:43.523Z,29.63
2023-04-06T15:06:01.903Z,29.58
2023-04-06T15:10:18.429Z,30.78
2023-04-06T15:14:34.596Z,30.79
2023-04-06T15:18:52.853Z,32.34
2023-04-06T15:23:09.059Z,32.60
2023-04-06T15:27:25.838Z,34.84
2023-04-06T15:31:42.746Z,36.00
2023-04-06T15:35:59.130Z,37.69
2023-04-06T15:40:16.939Z,38.97
2023-04-06T15:44:33.262Z,42.01
2023-04-06T15:48:49.544Z,42.36
2023-04-06T15:53:06.145Z,43.99
2023-04-06T15:57:22.370Z,45.44
2023-04-06T16:01:38.720Z,44.83
2023-04-06T16:06:08.022Z,45.26
2023-04-06T16:10:25.403Z,46.10
2023-04-06T16:14:41.709Z,46.03
2023-04-06T16:18:57.982Z,46.78
2023-04-06T16:23:14.257Z,50.01
2023-04-06T16:27:30.795Z,49.54
2023-04-06T16:31:47.578Z,50.38
2023-04-06T16:36:03.993Z,51.28
2023-04-06T16:40:20.354Z,51.89
2023-04-06T16:44:36.635Z,53.05
2023-04-06T16:48:52.910Z,53.37
2023-04-06T16:53:12.846Z,51.95
2023-04-06T16:57:31.806Z,53.03
2023-04-06T17:01:48.182Z,54.36
2023-04-06T17:06:04.582Z,53.49
2023-04-06T17:10:28.787Z,55.27
2023-04-06T17:14:49.806Z,56.18
2023-04-06T17:19:06.306Z,57.16
2023-04-06T17:23:24.394Z,56.77
2023-04-06T17:27:40.591Z,57.63
2023-04-06T17:31:56.804Z,57.61
2023-04-06T17:36:15.222Z,58.01
2023-04-06T17:40:32.129Z,58.07
2023-04-06T17:44:51.529Z,57.40
2023-04-06T17:49:09.605Z,58.64
2023-04-06T17:53:25.966Z,57.76
2023-04-06T17:57:47.451Z,58.27
2023-04-06T18:02:04.548Z,58.93
2023-04-06T18:06:21.979Z,59.71
2023-04-06T18:10:39.567Z,59.59
2023-04-06T18:14:55.837Z,60.56
2023-04-06T18:19:12.186Z,59.83
2023-04-06T18:23:28.438Z,59.47
2023-04-06T18:27:44.686Z,58.53
2023-04-06T18:32:01.071Z,58.42
2023-04-06T18:36:17.292Z,58.99
2023-04-06T18:40:38.225Z,58.04
2023-04-06T18:44:55.096Z,58.03
2023-04-06T18:49:11.540Z,58.19
2023-04-06T18:53:29.364Z,56.38
2023-04-06T18:57:46.402Z,56.34
2023-04-06T19:02:02.730Z,55.54
2023-04-06T19:06:19.037Z,56.15
2023-04-06T19:10:35.891Z,56.23
2023-04-06T19:14:52.386Z,55.40
2023-04-06T19:19:08.791Z,56.10
2023-04-06T19:23:25.219Z,55.46
2023-04-06T19:27:41.465Z,54.72
2023-04-06T19:31:57.670Z,54.68
2023-04-06T19:36:14.166Z,54.60
2023-04-06T19:40:30.617Z,53.62
2023-04-06T19:44:46.855Z,53.88
2023-04-06T19:49:03.125Z,54.89
2023-04-06T19:53:19.307Z,56.53
2023-04-06T19:57:35.549Z,55.40
2023-04-06T20:01:52.002Z,55.86
2023-04-06T20:06:08.817Z,57.68
2023-04-06T20:10:25.128Z,59.33
2023-04-06T20:14:41.485Z,59.16
2023-04-06T20:18:57.697Z,59.83
2023-04-06T20:23:13.977Z,59.46
2023-04-06T20:27:30.145Z,58.53
2023-04-06T20:31:46.960Z,59.54
2023-04-06T20:36:03.699Z,59.87
2023-04-06T20:40:20.928Z,59.04
2023-04-06T20:44:37.338Z,59.11
2023-04-06T20:48:54.084Z,59.07
2023-04-06T20:53:10.768Z,58.55
2023-04-06T20:57:27.090Z,59.95
2023-04-06T21:01:44.750Z,59.40
2023-04-06T21:06:02.438Z,59.52
2023-04-06T21:10:18.815Z,58.36
2023-04-06T21:14:35.645Z,59.16
2023-04-06T21:18:52.099Z,57.68
2023-04-06T21:23:08.306Z,56.49
2023-04-06T21:27:25.085Z,57.16
2023-04-06T21:31:42.428Z,57.89
2023-04-06T21:35:58.849Z,57.87
2023-04-06T21:40:15.237Z,56.86
2023-04-06T21:44:31.561Z,57.08
2023-04-06T21:48:48.100Z,57.69
2023-04-06T21:53:04.345Z,57.90
2023-04-06T21:57:20.608Z,56.96
2023-04-06T22:01:36.874Z,58.03
2023-04-06T22:05:53.079Z,57.98
2023-04-06T22:10:09.551Z,57.75
2023-04-06T22:14:26.153Z,57.37
2023-04-06T22:18:42.402Z,58.10
2023-04-06T22:22:58.614Z,57.81
2023-04-06T22:27:14.875Z,57.48
2023-04-06T22:31:31.587Z,58.06
2023-04-06T22:35:47.894Z,58.93
2023-04-06T22:40:04.324Z,58.15
2023-04-06T22:44:20.676Z,57.71
2023-04-06T22:48:37.105Z,57.75
2023-04-06T22:52:53.425Z,56.40
2023-04-06T22:57:09.730Z,56.36
2023-04-06T23:01:26.055Z,55.85
2023-04-06T23:05:42.529Z,55.78
2023-04-06T23:09:59.361Z,55.65
2023-04-06T23:14:16.222Z,54.89
2023-04-06T23:18:32.508Z,55.64
2023-04-06T23:22:48.764Z,55.34
2023-04-06T23:27:05.102Z,55.38
2023-04-06T23:31:21.409Z,55.58
2023-04-06T23:35:37.655Z,55.85
2023-04-06T23:39:53.871Z,54.69
2023-04-06T23:44:10.160Z,54.88
2023-04-06T23:48:26.324Z,54.13
2023-04-06T23:52:42.547Z,54.06
2023-04-06T23:56:58.723Z,54.39
